sensor_id;sensor_type;location;lat;lon;timestamp;P1;durP1;ratioP1;P2;durP2;ratioP2
61393;SDS011;48555;50.952;-0.120;2023-05-02T00:01:39;4.90;;;2.70;;
61393;SDS011;48555;50.952;-0.120;2023-05-02T00:04:05;6.28;;;3.17;;
61393;SDS011;48555;50.952;-0.120;2023-05-02T00:06:31;4.50;;;2.97;;
61393;SDS011;48555;50.952;-0.120;2023-05-02T00:08:56;6.60;;;3.00;;
61393;SDS011;48555;50.952;-0.120;2023-05-02T00:11:22;6.07;;;3.10;;
61393;SDS011;48555;50.952;-0.120;2023-05-02T00:13:48;6.63;;;3.28;;
61393;SDS011;48555;50.952;-0.120;2023-05-02T00:16:14;6.15;;;3.30;;
61393;SDS011;48555;50.952;-0.120;2023-05-02T00:18:40;5.97;;;3.13;;
61393;SDS011;48555;50.952;-0.120;2023-05-02T00:21:06;5.35;;;2.95;;
61393;SDS011;48555;50.952;-0.120;2023-05-02T00:23:32;6.65;;;3.20;;
61393;SDS011;48555;50.952;-0.120;2023-05-02T00:25:58;5.55;;;3.30;;
61393;SDS011;48555;50.952;-0.120;2023-05-02T00:28:23;4.47;;;2.97;;
61393;SDS011;48555;50.952;-0.120;2023-05-02T00:30:50;4.00;;;2.90;;
61393;SDS011;48555;50.952;-0.120;2023-05-02T00:33:16;5.00;;;2.70;;
61393;SDS011;48555;50.952;-0.120;2023-05-02T00:35:41;3.85;;;2.55;;
61393;SDS011;48555;50.952;-0.120;2023-05-02T00:38:07;5.32;;;2.90;;
61393;SDS011;48555;50.952;-0.120;2023-05-02T00:40:45;4.78;;;3.10;;
61393;SDS011;48555;50.952;-0.120;2023-05-02T00:43:12;5.82;;;3.25;;
61393;SDS011;48555;50.952;-0.120;2023-05-02T00:45:38;4.53;;;2.80;;
61393;SDS011;48555;50.952;-0.120;2023-05-02T00:48:07;5.93;;;3.33;;
61393;SDS011;48555;50.952;-0.120;2023-05-02T00:50:37;5.75;;;2.83;;
61393;SDS011;48555;50.952;-0.120;2023-05-02T00:53:07;5.85;;;3.35;;
61393;SDS011;48555;50.952;-0.120;2023-05-02T00:55:34;5.72;;;2.95;;
61393;SDS011;48555;50.952;-0.120;2023-05-02T00:58:04;5.00;;;3.28;;
61393;SDS011;48555;50.952;-0.120;2023-05-02T01:01:15;6.38;;;3.28;;
61393;SDS011;48555;50.952;-0.120;2023-05-02T01:03:31;5.68;;;2.88;;
61393;SDS011;48555;50.952;-0.120;2023-05-02T01:06:22;5.18;;;3.03;;
61393;SDS011;48555;50.952;-0.120;2023-05-02T01:11:34;5.22;;;3.00;;
61393;SDS011;48555;50.952;-0.120;2023-05-02T01:14:02;5.40;;;3.10;;
61393;SDS011;48555;50.952;-0.120;2023-05-02T01:16:30;5.53;;;3.40;;
61393;SDS011;48555;50.952;-0.120;2023-05-02T01:18:57;5.50;;;2.88;;
61393;SDS011;48555;50.952;-0.120;2023-05-02T01:21:25;5.47;;;3.03;;
61393;SDS011;48555;50.952;-0.120;2023-05-02T01:23:56;4.35;;;2.80;;
61393;SDS011;48555;50.952;-0.120;2023-05-02T01:29:26;4.75;;;3.00;;
61393;SDS011;48555;50.952;-0.120;2023-05-02T01:31:55;5.68;;;2.83;;
61393;SDS011;48555;50.952;-0.120;2023-05-02T01:34:22;4.57;;;2.95;;
61393;SDS011;48555;50.952;-0.120;2023-05-02T01:36:50;4.38;;;2.70;;
61393;SDS011;48555;50.952;-0.120;2023-05-02T01:39:18;4.47;;;2.92;;
61393;SDS011;48555;50.952;-0.120;2023-05-02T01:41:45;4.40;;;2.70;;
61393;SDS011;48555;50.952;-0.120;2023-05-02T01:44:17;5.78;;;2.90;;
61393;SDS011;48555;50.952;-0.120;2023-05-02T01:46:45;4.47;;;2.55;;
61393;SDS011;48555;50.952;-0.120;2023-05-02T01:49:12;3.65;;;2.53;;
61393;SDS011;48555;50.952;-0.120;2023-05-02T01:51:43;5.65;;;2.90;;
61393;SDS011;48555;50.952;-0.120;2023-05-02T01:54:11;4.82;;;2.85;;
61393;SDS011;48555;50.952;-0.120;2023-05-02T01:56:38;5.60;;;2.97;;
61393;SDS011;48555;50.952;-0.120;2023-05-02T01:59:04;4.70;;;2.50;;
61393;SDS011;48555;50.952;-0.120;2023-05-02T02:01:32;4.65;;;2.72;;
61393;SDS011;48555;50.952;-0.120;2023-05-02T02:04:00;4.15;;;2.83;;
61393;SDS011;48555;50.952;-0.120;2023-05-02T02:06:28;3.70;;;2.58;;
61393;SDS011;48555;50.952;-0.120;2023-05-02T02:08:53;5.07;;;2.90;;
61393;SDS011;48555;50.952;-0.120;2023-05-02T02:11:26;5.22;;;3.20;;
61393;SDS011;48555;50.952;-0.120;2023-05-02T02:14:05;4.30;;;2.63;;
61393;SDS011;48555;50.952;-0.120;2023-05-02T02:16:36;7.05;;;2.80;;
61393;SDS011;48555;50.952;-0.120;2023-05-02T02:19:06;5.25;;;2.97;;
61393;SDS011;48555;50.952;-0.120;2023-05-02T02:21:34;4.22;;;2.60;;
61393;SDS011;48555;50.952;-0.120;2023-05-02T02:24:01;5.70;;;2.78;;
61393;SDS011;48555;50.952;-0.120;2023-05-02T02:26:28;5.43;;;3.00;;
61393;SDS011;48555;50.952;-0.120;2023-05-02T02:28:54;4.88;;;2.70;;
61393;SDS011;48555;50.952;-0.120;2023-05-02T02:31:20;4.55;;;2.80;;
61393;SDS011;48555;50.952;-0.120;2023-05-02T02:33:45;3.80;;;2.30;;
61393;SDS011;48555;50.952;-0.120;2023-05-02T02:36:11;4.10;;;2.80;;
61393;SDS011;48555;50.952;-0.120;2023-05-02T02:47:19;5.25;;;3.05;;
61393;SDS011;48555;50.952;-0.120;2023-05-02T02:50:07;4.25;;;2.70;;
61393;SDS011;48555;50.952;-0.120;2023-05-02T02:55:08;4.65;;;2.90;;
61393;SDS011;48555;50.952;-0.120;2023-05-02T02:57:45;3.92;;;2.65;;
61393;SDS011;48555;50.952;-0.120;2023-05-02T03:00:19;5.63;;;2.80;;
61393;SDS011;48555;50.952;-0.120;2023-05-02T03:02:48;3.70;;;2.55;;
61393;SDS011;48555;50.952;-0.120;2023-05-02T03:05:17;4.10;;;2.83;;
61393;SDS011;48555;50.952;-0.120;2023-05-02T03:07:43;4.90;;;3.17;;
61393;SDS011;48555;50.952;-0.120;2023-05-02T03:10:08;4.85;;;2.80;;
61393;SDS011;48555;50.952;-0.120;2023-05-02T03:12:35;5.45;;;2.88;;
61393;SDS011;48555;50.952;-0.120;2023-05-02T03:17:48;5.10;;;2.92;;
61393;SDS011;48555;50.952;-0.120;2023-05-02T03:20:13;4.20;;;2.80;;
61393;SDS011;48555;50.952;-0.120;2023-05-02T03:22:38;5.90;;;3.00;;
61393;SDS011;48555;50.952;-0.120;2023-05-02T03:25:04;5.43;;;3.10;;
61393;SDS011;48555;50.952;-0.120;2023-05-02T03:27:30;4.40;;;2.85;;
61393;SDS011;48555;50.952;-0.120;2023-05-02T03:29:56;5.95;;;3.45;;
61393;SDS011;48555;50.952;-0.120;2023-05-02T03:32:21;5.07;;;3.42;;
61393;SDS011;48555;50.952;-0.120;2023-05-02T03:34:46;5.03;;;3.47;;
61393;SDS011;48555;50.952;-0.120;2023-05-02T03:37:12;5.25;;;3.17;;
61393;SDS011;48555;50.952;-0.120;2023-05-02T03:39:37;6.47;;;3.70;;
61393;SDS011;48555;50.952;-0.120;2023-05-02T03:42:03;6.32;;;3.90;;
61393;SDS011;48555;50.952;-0.120;2023-05-02T03:44:29;7.25;;;3.95;;
61393;SDS011;48555;50.952;-0.120;2023-05-02T03:46:54;5.32;;;3.47;;
61393;SDS011;48555;50.952;-0.120;2023-05-02T03:49:20;6.60;;;3.72;;
61393;SDS011;48555;50.952;-0.120;2023-05-02T03:51:45;5.60;;;3.50;;
61393;SDS011;48555;50.952;-0.120;2023-05-02T03:54:11;5.15;;;3.47;;
61393;SDS011;48555;50.952;-0.120;2023-05-02T03:56:36;6.45;;;3.67;;
61393;SDS011;48555;50.952;-0.120;2023-05-02T03:59:02;6.10;;;3.90;;
61393;SDS011;48555;50.952;-0.120;2023-05-02T04:01:28;6.60;;;3.80;;
61393;SDS011;48555;50.952;-0.120;2023-05-02T04:03:53;9.27;;;3.85;;
61393;SDS011;48555;50.952;-0.120;2023-05-02T04:06:18;5.70;;;3.63;;
61393;SDS011;48555;50.952;-0.120;2023-05-02T04:08:44;5.82;;;3.80;;
61393;SDS011;48555;50.952;-0.120;2023-05-02T04:11:09;5.10;;;3.70;;
61393;SDS011;48555;50.952;-0.120;2023-05-02T04:13:34;6.47;;;3.75;;
61393;SDS011;48555;50.952;-0.120;2023-05-02T04:16:00;7.45;;;4.00;;
61393;SDS011;48555;50.952;-0.120;2023-05-02T04:18:25;6.45;;;4.35;;
61393;SDS011;48555;50.952;-0.120;2023-05-02T04:20:51;6.32;;;4.05;;
61393;SDS011;48555;50.952;-0.120;2023-05-02T04:23:17;6.53;;;4.32;;
61393;SDS011;48555;50.952;-0.120;2023-05-02T04:25:52;6.47;;;3.85;;
61393;SDS011;48555;50.952;-0.120;2023-05-02T04:28:21;5.35;;;3.72;;
61393;SDS011;48555;50.952;-0.120;2023-05-02T04:30:47;5.90;;;3.67;;
61393;SDS011;48555;50.952;-0.120;2023-05-02T04:33:13;5.25;;;3.53;;
61393;SDS011;48555;50.952;-0.120;2023-05-02T04:35:39;6.20;;;4.15;;
61393;SDS011;48555;50.952;-0.120;2023-05-02T04:38:05;7.00;;;3.65;;
61393;SDS011;48555;50.952;-0.120;2023-05-02T04:40:31;6.35;;;4.07;;
61393;SDS011;48555;50.952;-0.120;2023-05-02T04:42:57;5.40;;;3.50;;
61393;SDS011;48555;50.952;-0.120;2023-05-02T04:45:23;7.00;;;4.18;;
61393;SDS011;48555;50.952;-0.120;2023-05-02T04:47:49;6.65;;;4.32;;
61393;SDS011;48555;50.952;-0.120;2023-05-02T04:50:14;6.20;;;4.13;;
61393;SDS011;48555;50.952;-0.120;2023-05-02T04:52:40;7.28;;;4.82;;
61393;SDS011;48555;50.952;-0.120;2023-05-02T04:55:06;7.22;;;4.75;;
61393;SDS011;48555;50.952;-0.120;2023-05-02T04:57:31;6.82;;;4.30;;
61393;SDS011;48555;50.952;-0.120;2023-05-02T04:59:57;8.48;;;4.30;;
61393;SDS011;48555;50.952;-0.120;2023-05-02T05:02:22;6.97;;;4.43;;
61393;SDS011;48555;50.952;-0.120;2023-05-02T05:04:49;8.10;;;4.88;;
61393;SDS011;48555;50.952;-0.120;2023-05-02T05:07:15;7.18;;;5.03;;
61393;SDS011;48555;50.952;-0.120;2023-05-02T05:09:40;7.43;;;5.07;;
61393;SDS011;48555;50.952;-0.120;2023-05-02T05:12:06;8.85;;;5.80;;
61393;SDS011;48555;50.952;-0.120;2023-05-02T05:14:31;11.85;;;7.07;;
61393;SDS011;48555;50.952;-0.120;2023-05-02T05:16:57;7.88;;;5.78;;
61393;SDS011;48555;50.952;-0.120;2023-05-02T05:19:23;11.75;;;7.22;;
61393;SDS011;48555;50.952;-0.120;2023-05-02T05:21:49;12.90;;;8.00;;
61393;SDS011;48555;50.952;-0.120;2023-05-02T05:24:14;11.52;;;7.68;;
61393;SDS011;48555;50.952;-0.120;2023-05-02T05:26:39;12.80;;;7.95;;
61393;SDS011;48555;50.952;-0.120;2023-05-02T05:29:05;12.68;;;8.32;;
61393;SDS011;48555;50.952;-0.120;2023-05-02T05:31:31;12.40;;;8.30;;
61393;SDS011;48555;50.952;-0.120;2023-05-02T05:33:57;12.52;;;8.10;;
61393;SDS011;48555;50.952;-0.120;2023-05-02T05:36:22;12.48;;;8.23;;
61393;SDS011;48555;50.952;-0.120;2023-05-02T05:38:47;12.32;;;8.43;;
61393;SDS011;48555;50.952;-0.120;2023-05-02T05:41:13;13.02;;;8.23;;
61393;SDS011;48555;50.952;-0.120;2023-05-02T05:43:38;13.25;;;8.13;;
61393;SDS011;48555;50.952;-0.120;2023-05-02T05:46:04;14.07;;;8.40;;
61393;SDS011;48555;50.952;-0.120;2023-05-02T05:48:29;14.57;;;8.77;;
61393;SDS011;48555;50.952;-0.120;2023-05-02T05:50:54;15.70;;;9.95;;
61393;SDS011;48555;50.952;-0.120;2023-05-02T05:53:20;16.60;;;9.98;;
61393;SDS011;48555;50.952;-0.120;2023-05-02T05:55:45;16.73;;;9.85;;
61393;SDS011;48555;50.952;-0.120;2023-05-02T05:58:11;15.98;;;10.43;;
61393;SDS011;48555;50.952;-0.120;2023-05-02T06:00:37;15.90;;;10.18;;
61393;SDS011;48555;50.952;-0.120;2023-05-02T06:03:03;14.57;;;9.82;;
61393;SDS011;48555;50.952;-0.120;2023-05-02T06:05:30;17.58;;;10.23;;
61393;SDS011;48555;50.952;-0.120;2023-05-02T06:07:56;17.98;;;10.32;;
61393;SDS011;48555;50.952;-0.120;2023-05-02T06:10:22;16.08;;;9.77;;
61393;SDS011;48555;50.952;-0.120;2023-05-02T06:12:47;18.10;;;10.63;;
61393;SDS011;48555;50.952;-0.120;2023-05-02T06:15:13;16.23;;;10.52;;
61393;SDS011;48555;50.952;-0.120;2023-05-02T06:17:38;16.48;;;10.85;;
61393;SDS011;48555;50.952;-0.120;2023-05-02T06:20:03;15.63;;;8.82;;
61393;SDS011;48555;50.952;-0.120;2023-05-02T06:22:30;16.38;;;9.45;;
61393;SDS011;48555;50.952;-0.120;2023-05-02T06:24:56;15.85;;;10.02;;
61393;SDS011;48555;50.952;-0.120;2023-05-02T06:27:21;16.40;;;9.82;;
61393;SDS011;48555;50.952;-0.120;2023-05-02T06:29:49;18.27;;;9.80;;
61393;SDS011;48555;50.952;-0.120;2023-05-02T06:32:15;19.02;;;10.68;;
61393;SDS011;48555;50.952;-0.120;2023-05-02T06:34:40;18.63;;;9.50;;
61393;SDS011;48555;50.952;-0.120;2023-05-02T06:37:05;17.33;;;10.48;;
61393;SDS011;48555;50.952;-0.120;2023-05-02T06:39:31;15.43;;;9.75;;
61393;SDS011;48555;50.952;-0.120;2023-05-02T06:41:57;16.48;;;9.38;;
61393;SDS011;48555;50.952;-0.120;2023-05-02T06:44:23;23.48;;;10.73;;
61393;SDS011;48555;50.952;-0.120;2023-05-02T06:46:49;16.17;;;10.25;;
61393;SDS011;48555;50.952;-0.120;2023-05-02T06:49:14;15.52;;;9.95;;
61393;SDS011;48555;50.952;-0.120;2023-05-02T06:51:40;14.68;;;10.10;;
61393;SDS011;48555;50.952;-0.120;2023-05-02T06:54:05;14.85;;;10.02;;
61393;SDS011;48555;50.952;-0.120;2023-05-02T06:56:31;14.50;;;9.68;;
61393;SDS011;48555;50.952;-0.120;2023-05-02T06:58:56;12.82;;;8.73;;
61393;SDS011;48555;50.952;-0.120;2023-05-02T07:01:22;13.90;;;8.57;;
61393;SDS011;48555;50.952;-0.120;2023-05-02T07:03:47;13.65;;;8.00;;
61393;SDS011;48555;50.952;-0.120;2023-05-02T07:06:12;13.27;;;8.05;;
61393;SDS011;48555;50.952;-0.120;2023-05-02T07:08:38;11.35;;;6.80;;
61393;SDS011;48555;50.952;-0.120;2023-05-02T07:11:03;13.98;;;7.72;;
61393;SDS011;48555;50.952;-0.120;2023-05-02T07:13:29;12.32;;;6.20;;
61393;SDS011;48555;50.952;-0.120;2023-05-02T07:15:54;11.23;;;6.68;;
61393;SDS011;48555;50.952;-0.120;2023-05-02T07:18:20;9.98;;;5.18;;
61393;SDS011;48555;50.952;-0.120;2023-05-02T07:20:46;10.25;;;5.35;;
61393;SDS011;48555;50.952;-0.120;2023-05-02T07:23:11;8.80;;;4.65;;
61393;SDS011;48555;50.952;-0.120;2023-05-02T07:25:36;6.95;;;4.32;;
61393;SDS011;48555;50.952;-0.120;2023-05-02T07:28:03;8.27;;;4.15;;
61393;SDS011;48555;50.952;-0.120;2023-05-02T07:30:29;7.13;;;3.65;;
61393;SDS011;48555;50.952;-0.120;2023-05-02T07:32:54;7.20;;;3.85;;
61393;SDS011;48555;50.952;-0.120;2023-05-02T07:35:20;10.20;;;4.30;;
61393;SDS011;48555;50.952;-0.120;2023-05-02T07:37:45;10.05;;;4.40;;
61393;SDS011;48555;50.952;-0.120;2023-05-02T07:40:10;8.50;;;4.47;;
61393;SDS011;48555;50.952;-0.120;2023-05-02T07:42:36;7.05;;;4.00;;
61393;SDS011;48555;50.952;-0.120;2023-05-02T07:45:01;7.63;;;3.97;;
61393;SDS011;48555;50.952;-0.120;2023-05-02T07:47:27;9.02;;;4.15;;
61393;SDS011;48555;50.952;-0.120;2023-05-02T07:49:53;10.43;;;4.75;;
61393;SDS011;48555;50.952;-0.120;2023-05-02T07:52:20;12.40;;;4.57;;
61393;SDS011;48555;50.952;-0.120;2023-05-02T07:54:48;9.45;;;4.47;;
61393;SDS011;48555;50.952;-0.120;2023-05-02T07:57:15;11.27;;;4.70;;
61393;SDS011;48555;50.952;-0.120;2023-05-02T07:59:40;7.80;;;4.38;;
61393;SDS011;48555;50.952;-0.120;2023-05-02T08:02:06;10.27;;;4.80;;
61393;SDS011;48555;50.952;-0.120;2023-05-02T08:04:31;6.40;;;3.90;;
61393;SDS011;48555;50.952;-0.120;2023-05-02T08:06:57;9.88;;;4.30;;
61393;SDS011;48555;50.952;-0.120;2023-05-02T08:09:22;9.38;;;4.05;;
61393;SDS011;48555;50.952;-0.120;2023-05-02T08:11:48;11.20;;;4.13;;
61393;SDS011;48555;50.952;-0.120;2023-05-02T08:14:14;11.68;;;4.50;;
61393;SDS011;48555;50.952;-0.120;2023-05-02T08:16:40;8.30;;;3.92;;
61393;SDS011;48555;50.952;-0.120;2023-05-02T08:19:05;7.57;;;3.85;;
61393;SDS011;48555;50.952;-0.120;2023-05-02T08:21:31;8.65;;;3.58;;
61393;SDS011;48555;50.952;-0.120;2023-05-02T08:23:57;8.38;;;3.90;;
61393;SDS011;48555;50.952;-0.120;2023-05-02T08:26:23;10.82;;;3.47;;
61393;SDS011;48555;50.952;-0.120;2023-05-02T08:28:50;8.57;;;3.35;;
61393;SDS011;48555;50.952;-0.120;2023-05-02T08:31:15;9.43;;;3.83;;
61393;SDS011;48555;50.952;-0.120;2023-05-02T08:33:41;8.95;;;3.53;;
61393;SDS011;48555;50.952;-0.120;2023-05-02T08:36:11;9.32;;;3.30;;
61393;SDS011;48555;50.952;-0.120;2023-05-02T08:38:40;7.93;;;3.40;;
61393;SDS011;48555;50.952;-0.120;2023-05-02T08:41:16;8.15;;;3.25;;
61393;SDS011;48555;50.952;-0.120;2023-05-02T08:43:42;9.55;;;4.15;;
61393;SDS011;48555;50.952;-0.120;2023-05-02T08:46:09;9.02;;;3.40;;
61393;SDS011;48555;50.952;-0.120;2023-05-02T08:48:35;11.07;;;3.65;;
61393;SDS011;48555;50.952;-0.120;2023-05-02T08:51:02;8.50;;;3.67;;
61393;SDS011;48555;50.952;-0.120;2023-05-02T08:53:30;6.15;;;2.97;;
61393;SDS011;48555;50.952;-0.120;2023-05-02T08:55:58;5.93;;;3.17;;
61393;SDS011;48555;50.952;-0.120;2023-05-02T08:58:24;5.03;;;3.00;;
61393;SDS011;48555;50.952;-0.120;2023-05-02T09:00:49;4.72;;;2.80;;
61393;SDS011;48555;50.952;-0.120;2023-05-02T09:06:07;7.30;;;2.80;;
61393;SDS011;48555;50.952;-0.120;2023-05-02T09:08:38;4.35;;;2.60;;
61393;SDS011;48555;50.952;-0.120;2023-05-02T09:11:05;6.05;;;2.75;;
61393;SDS011;48555;50.952;-0.120;2023-05-02T09:16:24;7.40;;;3.00;;
61393;SDS011;48555;50.952;-0.120;2023-05-02T09:18:52;6.38;;;3.00;;
61393;SDS011;48555;50.952;-0.120;2023-05-02T09:21:20;4.35;;;2.63;;
61393;SDS011;48555;50.952;-0.120;2023-05-02T09:23:50;8.82;;;3.10;;
61393;SDS011;48555;50.952;-0.120;2023-05-02T09:26:20;11.82;;;3.40;;
61393;SDS011;48555;50.952;-0.120;2023-05-02T09:28:58;5.80;;;2.60;;
61393;SDS011;48555;50.952;-0.120;2023-05-02T09:31:25;5.68;;;2.60;;
61393;SDS011;48555;50.952;-0.120;2023-05-02T09:34:06;6.40;;;2.88;;
61393;SDS011;48555;50.952;-0.120;2023-05-02T09:36:40;6.30;;;3.10;;
61393;SDS011;48555;50.952;-0.120;2023-05-02T09:39:11;6.70;;;3.00;;
61393;SDS011;48555;50.952;-0.120;2023-05-02T09:41:41;9.05;;;3.22;;
61393;SDS011;48555;50.952;-0.120;2023-05-02T09:44:11;7.65;;;3.08;;
61393;SDS011;48555;50.952;-0.120;2023-05-02T09:46:41;7.78;;;3.25;;
61393;SDS011;48555;50.952;-0.120;2023-05-02T09:49:07;8.35;;;2.65;;
61393;SDS011;48555;50.952;-0.120;2023-05-02T09:51:36;8.32;;;3.13;;
61393;SDS011;48555;50.952;-0.120;2023-05-02T09:54:02;8.15;;;3.20;;
61393;SDS011;48555;50.952;-0.120;2023-05-02T09:56:28;7.85;;;2.90;;
61393;SDS011;48555;50.952;-0.120;2023-05-02T09:59:12;8.35;;;3.47;;
61393;SDS011;48555;50.952;-0.120;2023-05-02T10:01:40;8.15;;;3.20;;
61393;SDS011;48555;50.952;-0.120;2023-05-02T10:04:15;7.65;;;3.15;;
61393;SDS011;48555;50.952;-0.120;2023-05-02T10:06:43;11.23;;;3.13;;
61393;SDS011;48555;50.952;-0.120;2023-05-02T10:09:09;5.93;;;3.05;;
61393;SDS011;48555;50.952;-0.120;2023-05-02T10:11:37;8.43;;;2.83;;
61393;SDS011;48555;50.952;-0.120;2023-05-02T10:14:05;8.18;;;3.40;;
61393;SDS011;48555;50.952;-0.120;2023-05-02T10:16:33;10.15;;;3.50;;
61393;SDS011;48555;50.952;-0.120;2023-05-02T10:19:05;6.05;;;2.72;;
61393;SDS011;48555;50.952;-0.120;2023-05-02T10:21:33;6.88;;;2.90;;
61393;SDS011;48555;50.952;-0.120;2023-05-02T10:24:00;10.20;;;3.17;;
61393;SDS011;48555;50.952;-0.120;2023-05-02T10:26:29;6.65;;;3.00;;
61393;SDS011;48555;50.952;-0.120;2023-05-02T10:28:55;9.35;;;3.58;;
61393;SDS011;48555;50.952;-0.120;2023-05-02T10:31:21;6.22;;;2.70;;
61393;SDS011;48555;50.952;-0.120;2023-05-02T10:33:49;10.57;;;3.45;;
61393;SDS011;48555;50.952;-0.120;2023-05-02T10:36:16;5.13;;;2.70;;
61393;SDS011;48555;50.952;-0.120;2023-05-02T10:38:45;7.17;;;2.93;;
61393;SDS011;48555;50.952;-0.120;2023-05-02T10:41:13;4.90;;;2.72;;
61393;SDS011;48555;50.952;-0.120;2023-05-02T10:43:45;7.35;;;3.10;;
61393;SDS011;48555;50.952;-0.120;2023-05-02T10:48:59;9.20;;;2.97;;
61393;SDS011;48555;50.952;-0.120;2023-05-02T10:51:27;9.52;;;3.08;;
61393;SDS011;48555;50.952;-0.120;2023-05-02T10:59:30;10.90;;;3.65;;
61393;SDS011;48555;50.952;-0.120;2023-05-02T11:01:58;8.63;;;3.13;;
61393;SDS011;48555;50.952;-0.120;2023-05-02T11:04:23;8.15;;;2.90;;
61393;SDS011;48555;50.952;-0.120;2023-05-02T11:11:49;9.07;;;3.33;;
61393;SDS011;48555;50.952;-0.120;2023-05-02T11:19:25;9.00;;;3.10;;
61393;SDS011;48555;50.952;-0.120;2023-05-02T11:25:02;10.48;;;2.97;;
61393;SDS011;48555;50.952;-0.120;2023-05-02T11:29:55;10.88;;;2.83;;
61393;SDS011;48555;50.952;-0.120;2023-05-02T11:32:24;7.75;;;2.90;;
61393;SDS011;48555;50.952;-0.120;2023-05-02T11:35:14;7.65;;;3.20;;
61393;SDS011;48555;50.952;-0.120;2023-05-02T11:37:40;7.68;;;3.05;;
61393;SDS011;48555;50.952;-0.120;2023-05-02T11:40:10;6.20;;;2.72;;
61393;SDS011;48555;50.952;-0.120;2023-05-02T11:42:36;8.68;;;2.88;;
61393;SDS011;48555;50.952;-0.120;2023-05-02T11:45:01;10.25;;;3.75;;
61393;SDS011;48555;50.952;-0.120;2023-05-02T11:47:27;11.75;;;3.20;;
61393;SDS011;48555;50.952;-0.120;2023-05-02T11:49:54;8.18;;;2.80;;
61393;SDS011;48555;50.952;-0.120;2023-05-02T11:52:21;7.53;;;2.78;;
61393;SDS011;48555;50.952;-0.120;2023-05-02T11:54:48;8.80;;;2.60;;
61393;SDS011;48555;50.952;-0.120;2023-05-02T11:57:14;8.55;;;2.55;;
61393;SDS011;48555;50.952;-0.120;2023-05-02T11:59:52;9.15;;;2.80;;
61393;SDS011;48555;50.952;-0.120;2023-05-02T12:02:40;6.40;;;2.88;;
61393;SDS011;48555;50.952;-0.120;2023-05-02T12:05:07;4.82;;;2.20;;
61393;SDS011;48555;50.952;-0.120;2023-05-02T12:07:40;4.75;;;2.20;;
61393;SDS011;48555;50.952;-0.120;2023-05-02T12:10:09;8.38;;;2.78;;
61393;SDS011;48555;50.952;-0.120;2023-05-02T12:12:35;7.85;;;2.40;;
61393;SDS011;48555;50.952;-0.120;2023-05-02T12:15:08;4.63;;;2.40;;
61393;SDS011;48555;50.952;-0.120;2023-05-02T12:17:53;10.73;;;2.88;;
61393;SDS011;48555;50.952;-0.120;2023-05-02T12:20:19;8.57;;;2.70;;
61393;SDS011;48555;50.952;-0.120;2023-05-02T12:22:44;3.92;;;2.30;;
61393;SDS011;48555;50.952;-0.120;2023-05-02T12:25:11;5.63;;;2.38;;
61393;SDS011;48555;50.952;-0.120;2023-05-02T12:27:37;5.43;;;2.47;;
61393;SDS011;48555;50.952;-0.120;2023-05-02T12:30:02;5.07;;;2.20;;
61393;SDS011;48555;50.952;-0.120;2023-05-02T12:32:32;4.80;;;2.10;;
61393;SDS011;48555;50.952;-0.120;2023-05-02T12:35:00;4.30;;;2.15;;
61393;SDS011;48555;50.952;-0.120;2023-05-02T12:37:27;6.53;;;2.45;;
61393;SDS011;48555;50.952;-0.120;2023-05-02T12:39:53;6.15;;;2.40;;
61393;SDS011;48555;50.952;-0.120;2023-05-02T12:42:24;5.50;;;2.00;;
61393;SDS011;48555;50.952;-0.120;2023-05-02T12:44:50;6.00;;;2.33;;
61393;SDS011;48555;50.952;-0.120;2023-05-02T12:47:17;6.38;;;2.45;;
61393;SDS011;48555;50.952;-0.120;2023-05-02T12:49:50;5.72;;;2.08;;
61393;SDS011;48555;50.952;-0.120;2023-05-02T12:52:21;6.50;;;2.30;;
61393;SDS011;48555;50.952;-0.120;2023-05-02T12:57:44;6.15;;;2.45;;
61393;SDS011;48555;50.952;-0.120;2023-05-02T13:00:10;8.32;;;2.85;;
61393;SDS011;48555;50.952;-0.120;2023-05-02T13:02:36;9.88;;;2.65;;
61393;SDS011;48555;50.952;-0.120;2023-05-02T13:05:01;7.60;;;2.53;;
61393;SDS011;48555;50.952;-0.120;2023-05-02T13:07:26;7.47;;;2.80;;
61393;SDS011;48555;50.952;-0.120;2023-05-02T13:09:52;8.98;;;3.05;;
61393;SDS011;48555;50.952;-0.120;2023-05-02T13:12:17;9.32;;;2.60;;
61393;SDS011;48555;50.952;-0.120;2023-05-02T13:14:43;7.20;;;2.17;;
61393;SDS011;48555;50.952;-0.120;2023-05-02T13:17:09;7.30;;;2.58;;
61393;SDS011;48555;50.952;-0.120;2023-05-02T13:19:34;7.43;;;2.60;;
61393;SDS011;48555;50.952;-0.120;2023-05-02T13:21:59;6.65;;;2.30;;
61393;SDS011;48555;50.952;-0.120;2023-05-02T13:24:25;4.88;;;2.10;;
61393;SDS011;48555;50.952;-0.120;2023-05-02T13:26:51;7.63;;;2.50;;
61393;SDS011;48555;50.952;-0.120;2023-05-02T13:29:16;7.05;;;2.30;;
61393;SDS011;48555;50.952;-0.120;2023-05-02T13:31:42;5.95;;;2.28;;
61393;SDS011;48555;50.952;-0.120;2023-05-02T13:34:07;5.70;;;2.53;;
61393;SDS011;48555;50.952;-0.120;2023-05-02T13:36:33;6.90;;;2.72;;
61393;SDS011;48555;50.952;-0.120;2023-05-02T13:38:58;4.82;;;2.33;;
61393;SDS011;48555;50.952;-0.120;2023-05-02T13:41:24;6.53;;;2.50;;
61393;SDS011;48555;50.952;-0.120;2023-05-02T13:43:49;4.05;;;2.20;;
61393;SDS011;48555;50.952;-0.120;2023-05-02T13:46:15;6.03;;;2.10;;
61393;SDS011;48555;50.952;-0.120;2023-05-02T13:48:40;5.13;;;2.50;;
61393;SDS011;48555;50.952;-0.120;2023-05-02T13:51:05;7.43;;;2.53;;
61393;SDS011;48555;50.952;-0.120;2023-05-02T13:53:31;7.28;;;2.50;;
61393;SDS011;48555;50.952;-0.120;2023-05-02T13:55:57;6.82;;;2.63;;
61393;SDS011;48555;50.952;-0.120;2023-05-02T13:58:22;7.38;;;2.28;;
61393;SDS011;48555;50.952;-0.120;2023-05-02T14:00:47;7.75;;;2.80;;
61393;SDS011;48555;50.952;-0.120;2023-05-02T14:03:13;5.18;;;2.70;;
61393;SDS011;48555;50.952;-0.120;2023-05-02T14:05:38;6.45;;;2.90;;
61393;SDS011;48555;50.952;-0.120;2023-05-02T14:08:07;5.60;;;2.20;;
61393;SDS011;48555;50.952;-0.120;2023-05-02T14:10:36;6.90;;;2.40;;
61393;SDS011;48555;50.952;-0.120;2023-05-02T14:13:02;8.55;;;2.75;;
61393;SDS011;48555;50.952;-0.120;2023-05-02T14:15:27;7.30;;;2.92;;
61393;SDS011;48555;50.952;-0.120;2023-05-02T14:17:53;8.90;;;2.70;;
61393;SDS011;48555;50.952;-0.120;2023-05-02T14:20:21;6.97;;;2.55;;
61393;SDS011;48555;50.952;-0.120;2023-05-02T14:22:50;4.50;;;2.13;;
61393;SDS011;48555;50.952;-0.120;2023-05-02T14:25:15;6.05;;;2.80;;
61393;SDS011;48555;50.952;-0.120;2023-05-02T14:27:43;6.88;;;2.55;;
61393;SDS011;48555;50.952;-0.120;2023-05-02T14:30:09;8.02;;;2.80;;
61393;SDS011;48555;50.952;-0.120;2023-05-02T14:32:35;7.75;;;2.88;;
61393;SDS011;48555;50.952;-0.120;2023-05-02T14:35:00;7.40;;;2.28;;
61393;SDS011;48555;50.952;-0.120;2023-05-02T14:37:25;9.10;;;2.60;;
61393;SDS011;48555;50.952;-0.120;2023-05-02T14:39:51;5.82;;;2.83;;
61393;SDS011;48555;50.952;-0.120;2023-05-02T14:42:19;7.55;;;2.67;;
61393;SDS011;48555;50.952;-0.120;2023-05-02T14:44:45;5.82;;;2.47;;
61393;SDS011;48555;50.952;-0.120;2023-05-02T14:47:11;6.55;;;2.40;;
61393;SDS011;48555;50.952;-0.120;2023-05-02T14:49:36;6.88;;;2.40;;
61393;SDS011;48555;50.952;-0.120;2023-05-02T14:52:01;4.28;;;2.10;;
61393;SDS011;48555;50.952;-0.120;2023-05-02T14:54:27;7.30;;;2.17;;
61393;SDS011;48555;50.952;-0.120;2023-05-02T14:56:54;4.93;;;2.08;;
61393;SDS011;48555;50.952;-0.120;2023-05-02T14:59:20;5.93;;;2.33;;
61393;SDS011;48555;50.952;-0.120;2023-05-02T15:01:45;7.15;;;2.30;;
61393;SDS011;48555;50.952;-0.120;2023-05-02T15:04:10;4.55;;;2.22;;
61393;SDS011;48555;50.952;-0.120;2023-05-02T15:06:36;6.85;;;2.28;;
61393;SDS011;48555;50.952;-0.120;2023-05-02T15:09:02;9.95;;;2.95;;
61393;SDS011;48555;50.952;-0.120;2023-05-02T15:11:28;6.82;;;2.33;;
61393;SDS011;48555;50.952;-0.120;2023-05-02T15:13:54;6.00;;;2.00;;
61393;SDS011;48555;50.952;-0.120;2023-05-02T15:16:19;7.20;;;2.30;;
61393;SDS011;48555;50.952;-0.120;2023-05-02T15:18:45;6.93;;;2.50;;
61393;SDS011;48555;50.952;-0.120;2023-05-02T15:21:10;6.43;;;2.10;;
61393;SDS011;48555;50.952;-0.120;2023-05-02T15:23:36;6.32;;;2.28;;